Terminal Aerodrome Forecast
Issued by NWS

Home | Current Version | Previous Version | Text Only | Print | Product List | Glossary On
Versions: 1 2 3 4 5 6 7 8 9 10 11 12
000
FTUS45 KRIW 282330
TAFWRL
TAF
KWRL 282330Z 2900/2924 02006KT P6SM VCSH FEW080 SCT110
     FM290300 VRB06KT P6SM SCT120
     FM292200 VRB10G15KT P6SM VCTS SCT080CB=

USA.gov is the U.S. government's official web portal to all federal, state and local government web resources and services.